Empire, Colorado
Current Conditions -  °F | °C
As of 7:50 PM on Friday 24 Oct 2014 (Local Time) from K0CO Reporting Station
Clear Clear  
Wind Chill: 27°   Ceiling: Unl
Heat Index: 36°   Visibility: 10mi
Dew Point: 34°   Wind: 14mph
Humidity: 93%   Direction: 270°W
Pressure: 30.67"   Gusts: 20mph
Location:  39.76°N, 105.68°W
Report Text: K0CO 250150Z AUTO 27012G17KT 10SM CLR 02/01 A3067 RMK AO2
Loading
Personal Weather Stations






























Interactive Weather Map
Tropical Storm Tracking
New forecast layout! Learn more

10-Day Weather Forecast

Advertisements
Track Severe Weather on mobile